createdAt,value
2023-05-17T00:01:43.481Z,7.72
2023-05-17T00:04:09.877Z,7.72
2023-05-17T00:06:36.349Z,7.70
2023-05-17T00:09:02.782Z,7.53
2023-05-17T00:11:29.176Z,7.62
2023-05-17T00:13:55.517Z,7.39
2023-05-17T00:16:21.892Z,7.42
2023-05-17T00:18:48.346Z,7.48
2023-05-17T00:21:14.800Z,7.23
2023-05-17T00:23:41.197Z,7.11
2023-05-17T00:26:07.558Z,7.20
2023-05-17T00:28:33.900Z,7.31
2023-05-17T00:31:00.258Z,7.20
2023-05-17T00:33:26.691Z,7.25
2023-05-17T00:35:53.078Z,7.21
2023-05-17T00:38:19.423Z,7.23
2023-05-17T00:40:45.781Z,7.27
2023-05-17T00:43:12.147Z,7.30
2023-05-17T00:45:38.491Z,7.39
2023-05-17T00:48:05.317Z,7.45
2023-05-17T00:50:31.951Z,7.43
2023-05-17T00:52:58.561Z,7.46
2023-05-17T00:55:25.002Z,7.47
2023-05-17T00:57:51.413Z,7.45
2023-05-17T01:00:18.358Z,7.41
2023-05-17T01:02:44.948Z,7.34
2023-05-17T01:05:11.420Z,7.35
2023-05-17T01:07:37.787Z,7.30
2023-05-17T01:10:04.601Z,7.38
2023-05-17T01:12:44.034Z,7.36
2023-05-17T01:15:22.740Z,7.27
2023-05-17T01:17:55.852Z,7.23
2023-05-17T01:20:37.121Z,7.11
2023-05-17T01:23:23.951Z,7.14
2023-05-17T01:26:02.328Z,7.17
2023-05-17T01:28:30.825Z,7.12
2023-05-17T01:30:59.312Z,7.08
2023-05-17T01:33:26.444Z,7.11
2023-05-17T01:35:52.882Z,7.07
2023-05-17T01:38:19.211Z,7.05
2023-05-17T01:40:56.521Z,6.92
2023-05-17T01:43:31.264Z,6.95
2023-05-17T01:46:07.327Z,6.96
2023-05-17T01:48:39.229Z,6.95
2023-05-17T01:51:05.879Z,6.85
2023-05-17T01:53:42.828Z,6.77
2023-05-17T01:56:19.757Z,6.78
2023-05-17T01:58:47.203Z,6.81
2023-05-17T02:01:15.701Z,6.82
2023-05-17T02:03:42.257Z,6.83
2023-05-17T02:06:08.664Z,6.87
2023-05-17T02:08:35.030Z,6.93
2023-05-17T02:11:01.385Z,6.85
2023-05-17T02:13:27.748Z,6.76
2023-05-17T02:15:54.125Z,6.73
2023-05-17T02:18:20.580Z,6.82
2023-05-17T02:20:47.254Z,6.79
2023-05-17T02:23:13.603Z,6.69
2023-05-17T02:25:40.003Z,6.68
2023-05-17T02:28:06.360Z,6.60
2023-05-17T02:30:32.701Z,6.50
2023-05-17T02:32:59.279Z,6.46
2023-05-17T02:35:25.694Z,6.46
2023-05-17T02:37:52.076Z,6.45
2023-05-17T02:40:18.577Z,6.56
2023-05-17T02:42:44.956Z,6.63
2023-05-17T02:45:11.514Z,6.61
2023-05-17T02:47:38.016Z,6.69
2023-05-17T02:50:04.969Z,6.59
2023-05-17T02:52:31.379Z,6.59
2023-05-17T02:54:57.757Z,6.53
2023-05-17T02:57:24.230Z,6.56
2023-05-17T02:59:50.624Z,6.43
2023-05-17T03:02:17.073Z,6.35
2023-05-17T03:04:43.508Z,6.24
2023-05-17T03:07:09.978Z,6.24
2023-05-17T03:09:36.365Z,6.22
2023-05-17T03:12:03.372Z,6.14
2023-05-17T03:14:29.768Z,6.19
2023-05-17T03:16:56.137Z,6.12
2023-05-17T03:19:22.687Z,6.16
2023-05-17T03:21:49.111Z,6.10
2023-05-17T03:24:15.470Z,6.08
2023-05-17T03:26:41.830Z,6.02
2023-05-17T03:29:08.257Z,6.05
2023-05-17T03:31:34.764Z,6.04
2023-05-17T03:34:01.225Z,6.03
2023-05-17T03:36:27.676Z,6.04
2023-05-17T03:38:54.030Z,6.07
2023-05-17T03:41:20.577Z,6.03
2023-05-17T03:43:46.937Z,5.98
2023-05-17T03:46:13.278Z,5.98
2023-05-17T03:48:39.806Z,6.06
2023-05-17T03:51:06.202Z,6.06
2023-05-17T03:53:32.578Z,6.06
2023-05-17T03:55:58.926Z,6.02
2023-05-17T03:58:25.274Z,6.09
2023-05-17T04:00:51.626Z,6.14
2023-05-17T04:03:19.980Z,6.11
2023-05-17T04:05:46.761Z,6.24
2023-05-17T04:08:13.131Z,6.24
2023-05-17T04:10:39.530Z,6.33
2023-05-17T04:13:05.865Z,6.32
2023-05-17T04:15:32.210Z,6.33
2023-05-17T04:17:58.678Z,6.28
2023-05-17T04:20:25.127Z,6.46
2023-05-17T04:22:51.482Z,6.58
2023-05-17T04:25:18.055Z,6.59
2023-05-17T04:27:45.665Z,6.68
2023-05-17T04:30:12.704Z,6.88
2023-05-17T04:32:39.093Z,7.00
2023-05-17T04:35:05.880Z,7.09
2023-05-17T04:37:32.257Z,7.23
2023-05-17T04:39:58.596Z,7.35
2023-05-17T04:42:24.964Z,7.35
2023-05-17T04:44:51.327Z,7.56
2023-05-17T04:47:17.670Z,7.83
2023-05-17T04:49:44.003Z,7.94
2023-05-17T04:52:10.382Z,8.01
2023-05-17T04:54:36.731Z,8.09
2023-05-17T04:57:03.165Z,8.10
2023-05-17T04:59:29.525Z,8.25
2023-05-17T05:01:55.899Z,8.33
2023-05-17T05:04:23.274Z,8.15
2023-05-17T05:06:49.645Z,8.09
2023-05-17T05:09:15.992Z,8.23
2023-05-17T05:11:42.387Z,8.44
2023-05-17T05:14:08.784Z,8.43
2023-05-17T05:16:35.190Z,8.39
2023-05-17T05:19:01.673Z,8.42
2023-05-17T05:21:28.241Z,8.59
2023-05-17T05:23:54.600Z,8.18
2023-05-17T05:26:20.944Z,8.40
2023-05-17T05:28:47.384Z,8.42
2023-05-17T05:31:13.733Z,8.18
2023-05-17T05:33:40.120Z,8.18
2023-05-17T05:36:06.858Z,8.35
2023-05-17T05:38:33.196Z,8.43
2023-05-17T05:40:59.554Z,8.24
2023-05-17T05:43:25.913Z,8.24
2023-05-17T05:45:52.269Z,8.15
2023-05-17T05:48:18.801Z,8.09
2023-05-17T05:50:45.236Z,8.07
2023-05-17T05:53:19.041Z,8.30
2023-05-17T05:55:46.670Z,8.18
2023-05-17T05:58:13.090Z,8.03
2023-05-17T06:00:39.540Z,7.96
2023-05-17T06:03:05.940Z,7.95
2023-05-17T06:05:32.536Z,8.06
2023-05-17T06:07:58.945Z,8.02
2023-05-17T06:10:25.340Z,7.99
2023-05-17T06:12:51.715Z,8.06
2023-05-17T06:15:18.141Z,8.13
2023-05-17T06:17:44.551Z,8.47
2023-05-17T06:20:11.169Z,8.98
2023-05-17T06:22:37.584Z,8.83
2023-05-17T06:25:04.121Z,8.67
2023-05-17T06:27:31.953Z,8.76
2023-05-17T06:29:58.320Z,9.04
2023-05-17T06:32:24.760Z,8.96
2023-05-17T06:34:51.142Z,8.72
2023-05-17T06:37:17.481Z,8.75
2023-05-17T06:39:51.542Z,8.37
2023-05-17T06:42:26.170Z,8.43
2023-05-17T06:44:52.522Z,8.66
2023-05-17T06:47:18.891Z,8.83
2023-05-17T06:49:45.275Z,9.22
2023-05-17T06:52:11.667Z,9.53
2023-05-17T06:54:38.055Z,9.09
2023-05-17T06:57:04.776Z,8.97
2023-05-17T06:59:31.254Z,9.03
2023-05-17T07:01:57.782Z,9.27
2023-05-17T07:04:24.312Z,9.05
2023-05-17T07:06:50.736Z,9.08
2023-05-17T07:09:18.718Z,9.14
2023-05-17T07:11:45.072Z,9.27
2023-05-17T07:14:11.560Z,9.31
2023-05-17T07:16:37.970Z,9.51
2023-05-17T07:19:04.593Z,9.25
2023-05-17T07:21:32.075Z,9.24
2023-05-17T07:23:58.715Z,9.10
2023-05-17T07:26:25.692Z,9.28
2023-05-17T07:28:52.201Z,9.64
2023-05-17T07:31:18.641Z,9.17
2023-05-17T07:33:45.094Z,9.00
2023-05-17T07:36:11.542Z,9.08
2023-05-17T07:38:38.016Z,9.05
2023-05-17T07:41:04.603Z,9.39
2023-05-17T07:43:30.953Z,9.40
2023-05-17T07:45:57.442Z,9.11
2023-05-17T07:48:23.983Z,9.73
2023-05-17T07:50:50.585Z,9.96
2023-05-17T07:53:16.954Z,9.94
2023-05-17T07:55:47.682Z,10.32
2023-05-17T07:58:14.038Z,9.91
2023-05-17T08:00:40.536Z,9.95
2023-05-17T08:03:07.243Z,9.38
2023-05-17T08:05:34.119Z,9.74
2023-05-17T08:08:00.563Z,9.74
2023-05-17T08:10:27.521Z,9.25
2023-05-17T08:12:54.271Z,9.51
2023-05-17T08:15:21.502Z,10.24
2023-05-17T08:17:47.979Z,11.05
2023-05-17T08:20:14.423Z,10.89
2023-05-17T08:22:40.827Z,10.28
2023-05-17T08:25:07.428Z,10.50
2023-05-17T08:27:33.816Z,10.18
2023-05-17T08:30:00.241Z,10.30
2023-05-17T08:32:26.678Z,10.29
2023-05-17T08:34:53.093Z,9.96
2023-05-17T08:37:19.476Z,9.84
2023-05-17T08:39:45.914Z,10.31
2023-05-17T08:42:12.851Z,10.24
2023-05-17T08:44:39.237Z,10.13
2023-05-17T08:47:06.431Z,10.73
2023-05-17T08:49:33.637Z,10.33
2023-05-17T08:52:01.260Z,10.32
2023-05-17T08:54:28.662Z,10.76
2023-05-17T08:56:59.880Z,10.28
2023-05-17T08:59:26.675Z,10.02
2023-05-17T09:01:53.815Z,10.07
2023-05-17T09:04:21.095Z,10.06
2023-05-17T09:06:47.520Z,10.19
2023-05-17T09:09:13.908Z,10.51
2023-05-17T09:11:40.251Z,10.83
2023-05-17T09:14:07.508Z,10.68
2023-05-17T09:16:36.025Z,11.29
2023-05-17T09:19:04.020Z,10.69
2023-05-17T09:21:31.423Z,10.22
2023-05-17T09:24:06.345Z,10.46
2023-05-17T09:26:41.984Z,10.01
2023-05-17T09:29:13.154Z,10.21
2023-05-17T09:31:41.081Z,10.78
2023-05-17T09:34:08.184Z,10.47
2023-05-17T09:36:41.477Z,10.88
2023-05-17T09:39:08.739Z,10.52
2023-05-17T09:41:43.399Z,10.56
2023-05-17T09:44:11.079Z,10.89
2023-05-17T09:46:48.291Z,11.22
2023-05-17T09:49:16.049Z,11.40
2023-05-17T09:51:48.303Z,10.47
2023-05-17T09:54:14.963Z,11.07
2023-05-17T09:56:41.469Z,11.24
2023-05-17T09:59:16.860Z,10.73
2023-05-17T10:01:44.798Z,10.39
2023-05-17T10:04:12.817Z,10.36
2023-05-17T10:06:46.367Z,9.99
2023-05-17T10:09:16.934Z,10.46
2023-05-17T10:11:46.729Z,10.90
2023-05-17T10:14:18.744Z,11.21
2023-05-17T10:16:45.698Z,11.12
2023-05-17T10:19:13.297Z,11.47
2023-05-17T10:21:40.986Z,12.02
2023-05-17T10:24:07.978Z,11.65
2023-05-17T10:26:36.379Z,12.24
2023-05-17T10:29:04.004Z,11.49
2023-05-17T10:31:31.742Z,11.40
2023-05-17T10:34:00.522Z,12.10
2023-05-17T10:36:27.084Z,12.74
2023-05-17T10:38:54.038Z,12.68
2023-05-17T10:41:23.353Z,11.65
2023-05-17T10:43:50.887Z,11.91
2023-05-17T10:46:19.622Z,11.86
2023-05-17T10:48:48.427Z,13.20
2023-05-17T10:51:14.875Z,12.70
2023-05-17T10:54:10.571Z,12.45
2023-05-17T10:56:39.716Z,11.71
2023-05-17T10:59:20.197Z,11.04
2023-05-17T11:01:58.915Z,11.08
2023-05-17T11:04:31.801Z,11.81
2023-05-17T11:07:16.212Z,12.43
2023-05-17T11:09:44.251Z,11.51
2023-05-17T11:12:12.283Z,11.67
2023-05-17T11:14:44.690Z,11.36
2023-05-17T11:17:19.508Z,11.30
2023-05-17T11:19:54.969Z,11.90
2023-05-17T11:22:28.295Z,11.96
2023-05-17T11:24:57.461Z,12.15
2023-05-17T11:27:24.509Z,12.57
2023-05-17T11:29:51.138Z,12.43
2023-05-17T11:32:17.653Z,11.62
2023-05-17T11:34:44.077Z,11.81
2023-05-17T11:37:11.554Z,11.71
2023-05-17T11:39:57.918Z,11.77
2023-05-17T11:42:24.737Z,12.15
2023-05-17T11:44:51.166Z,12.13
2023-05-17T11:47:17.635Z,12.09
2023-05-17T11:49:44.282Z,11.64
2023-05-17T11:52:10.680Z,11.32
2023-05-17T11:54:39.746Z,11.38
2023-05-17T11:57:06.771Z,11.18
2023-05-17T11:59:40.286Z,11.73
2023-05-17T12:02:06.965Z,12.72
2023-05-17T12:04:36.435Z,12.96
2023-05-17T12:07:03.548Z,12.80
2023-05-17T12:09:30.616Z,12.66
2023-05-17T12:11:57.606Z,12.02
2023-05-17T12:14:24.068Z,11.84
2023-05-17T12:16:55.913Z,12.24
2023-05-17T12:19:24.140Z,12.13
2023-05-17T12:21:50.988Z,11.58
2023-05-17T12:24:17.969Z,11.56
2023-05-17T12:26:47.976Z,11.61
2023-05-17T12:29:15.126Z,12.40
2023-05-17T12:31:48.935Z,12.66
2023-05-17T12:34:17.391Z,12.15
2023-05-17T12:36:44.722Z,12.67
2023-05-17T12:39:12.650Z,12.45
2023-05-17T12:41:39.431Z,11.87
2023-05-17T12:44:15.645Z,11.81
2023-05-17T12:46:42.998Z,12.14
2023-05-17T12:49:10.088Z,12.27
2023-05-17T12:51:46.315Z,11.79
2023-05-17T12:54:14.766Z,11.95
2023-05-17T12:56:42.602Z,13.06
2023-05-17T12:59:18.856Z,12.74
2023-05-17T13:01:49.968Z,12.28
2023-05-17T13:04:18.168Z,12.39
2023-05-17T13:06:54.625Z,12.80
2023-05-17T13:09:22.618Z,12.62
2023-05-17T13:11:56.869Z,13.17
2023-05-17T13:14:40.010Z,13.55
2023-05-17T13:17:16.479Z,14.24
2023-05-17T13:19:43.084Z,12.86
2023-05-17T13:22:10.334Z,12.24
2023-05-17T13:24:38.513Z,11.81
2023-05-17T13:27:05.401Z,11.76
2023-05-17T13:29:39.574Z,12.37
2023-05-17T13:32:07.901Z,12.59
2023-05-17T13:34:34.311Z,13.21
2023-05-17T13:37:00.640Z,13.62
2023-05-17T13:39:26.999Z,13.06
2023-05-17T13:41:53.397Z,13.01
2023-05-17T13:44:19.820Z,12.76
2023-05-17T13:46:46.168Z,12.65
2023-05-17T13:49:12.591Z,12.00
2023-05-17T13:51:38.937Z,12.04
2023-05-17T13:54:08.321Z,11.87
2023-05-17T13:56:34.764Z,12.40
2023-05-17T13:59:01.208Z,12.46
2023-05-17T14:01:27.715Z,12.01
2023-05-17T14:03:54.095Z,12.10
2023-05-17T14:06:20.851Z,11.90
2023-05-17T14:08:47.341Z,12.10
2023-05-17T14:11:13.829Z,12.38
2023-05-17T14:13:40.183Z,12.05
2023-05-17T14:16:06.748Z,11.74
2023-05-17T14:18:33.230Z,11.80
2023-05-17T14:20:59.712Z,11.98
2023-05-17T14:23:26.147Z,12.03
2023-05-17T14:25:52.535Z,12.17
2023-05-17T14:28:18.898Z,12.43
2023-05-17T14:30:45.618Z,12.73
2023-05-17T14:33:12.108Z,13.38
2023-05-17T14:35:38.613Z,12.55
2023-05-17T14:38:04.977Z,12.68
2023-05-17T14:40:31.539Z,11.89
2023-05-17T14:42:58.088Z,11.74
2023-05-17T14:45:24.486Z,12.36
2023-05-17T14:47:50.931Z,12.53
2023-05-17T14:50:17.372Z,12.27
2023-05-17T14:52:43.722Z,12.36
2023-05-17T14:55:10.124Z,11.95
2023-05-17T14:57:36.624Z,11.86
2023-05-17T15:00:03.131Z,11.55
2023-05-17T15:02:29.538Z,11.53
2023-05-17T15:04:56.162Z,11.60
2023-05-17T15:07:22.714Z,12.50
2023-05-17T15:09:49.065Z,12.39
2023-05-17T15:12:15.409Z,12.24
2023-05-17T15:14:41.809Z,11.95
2023-05-17T15:17:08.304Z,11.86
2023-05-17T15:19:34.890Z,12.10
2023-05-17T15:22:01.372Z,12.48
2023-05-17T15:24:27.987Z,11.53
2023-05-17T15:26:54.341Z,11.45
2023-05-17T15:29:20.719Z,11.92
2023-05-17T15:31:48.101Z,12.28
2023-05-17T15:34:14.589Z,12.57
2023-05-17T15:36:41.106Z,12.47
2023-05-17T15:39:07.489Z,12.38
2023-05-17T15:41:33.854Z,12.70
2023-05-17T15:44:00.216Z,12.49
2023-05-17T15:46:26.583Z,12.24
2023-05-17T15:48:52.932Z,12.30
2023-05-17T15:51:19.324Z,12.10
2023-05-17T15:53:45.677Z,11.97
2023-05-17T15:56:12.036Z,11.81
2023-05-17T15:58:38.402Z,11.71
2023-05-17T16:01:06.122Z,11.81
2023-05-17T16:03:33.421Z,12.06
2023-05-17T16:05:59.878Z,11.93
2023-05-17T16:08:26.284Z,12.02
2023-05-17T16:10:52.691Z,11.87
2023-05-17T16:13:19.080Z,11.80
2023-05-17T16:15:45.443Z,12.33
2023-05-17T16:18:12.233Z,12.31
2023-05-17T16:20:38.651Z,12.00
2023-05-17T16:23:06.034Z,12.15
2023-05-17T16:25:32.850Z,12.08
2023-05-17T16:27:59.214Z,11.91
2023-05-17T16:30:25.673Z,12.24
2023-05-17T16:32:52.612Z,12.16
2023-05-17T16:35:21.898Z,11.99
2023-05-17T16:37:49.334Z,12.02
2023-05-17T16:40:15.792Z,12.23
2023-05-17T16:42:42.222Z,12.58
2023-05-17T16:45:09.202Z,12.51
2023-05-17T16:47:35.656Z,12.11
2023-05-17T16:50:02.207Z,11.71
2023-05-17T16:52:29.252Z,11.44
2023-05-17T16:54:55.641Z,11.51
2023-05-17T16:57:21.979Z,11.79
2023-05-17T16:59:48.343Z,11.93
2023-05-17T17:02:14.809Z,11.68
2023-05-17T17:04:41.253Z,12.03
2023-05-17T17:07:07.606Z,12.08
2023-05-17T17:09:33.979Z,11.92
2023-05-17T17:12:02.918Z,12.19
2023-05-17T17:14:36.104Z,12.36
2023-05-17T17:17:02.473Z,12.18
2023-05-17T17:19:28.835Z,12.12
2023-05-17T17:21:55.191Z,12.16
2023-05-17T17:24:21.561Z,12.30
2023-05-17T17:26:47.922Z,12.28
2023-05-17T17:29:14.301Z,12.45
2023-05-17T17:31:40.662Z,12.47
2023-05-17T17:34:07.044Z,12.64
2023-05-17T17:36:34.411Z,12.31
2023-05-17T17:39:00.846Z,11.91
2023-05-17T17:41:27.228Z,11.85
2023-05-17T17:43:53.595Z,11.67
2023-05-17T17:46:19.959Z,11.46
2023-05-17T17:48:46.351Z,11.38
2023-05-17T17:51:12.766Z,11.28
2023-05-17T17:53:39.129Z,11.38
2023-05-17T17:56:05.594Z,11.23
2023-05-17T17:58:31.971Z,11.17
2023-05-17T18:00:58.391Z,11.03
2023-05-17T18:03:24.778Z,11.02
2023-05-17T18:05:51.132Z,10.88
2023-05-17T18:08:17.492Z,10.95
2023-05-17T18:10:43.875Z,10.85
2023-05-17T18:13:10.242Z,10.82
2023-05-17T18:15:36.609Z,10.84
2023-05-17T18:18:03.095Z,10.99
2023-05-17T18:20:29.734Z,10.83
2023-05-17T18:22:56.500Z,11.07
2023-05-17T18:25:22.924Z,10.95
2023-05-17T18:27:49.284Z,10.83
2023-05-17T18:30:16.774Z,10.76
2023-05-17T18:32:43.275Z,10.39
2023-05-17T18:35:10.134Z,10.28
2023-05-17T18:37:36.637Z,10.33
2023-05-17T18:40:03.195Z,10.48
2023-05-17T18:42:29.554Z,10.29
2023-05-17T18:44:55.932Z,10.18
2023-05-17T18:47:22.393Z,10.06
2023-05-17T18:49:50.189Z,10.00
2023-05-17T18:52:16.547Z,10.00
2023-05-17T18:54:42.997Z,9.88
2023-05-17T18:57:09.365Z,9.70
2023-05-17T18:59:35.713Z,9.63
2023-05-17T19:02:02.082Z,9.79
2023-05-17T19:04:30.495Z,9.72
2023-05-17T19:06:58.250Z,9.65
2023-05-17T19:09:24.628Z,9.55
2023-05-17T19:11:50.996Z,9.31
2023-05-17T19:14:17.364Z,9.03
2023-05-17T19:16:43.739Z,9.08
2023-05-17T19:19:10.219Z,9.13
2023-05-17T19:21:36.630Z,9.13
2023-05-17T19:24:03.092Z,8.98
2023-05-17T19:26:29.461Z,8.77
2023-05-17T19:28:55.799Z,8.83
2023-05-17T19:31:22.243Z,8.87
2023-05-17T19:33:48.668Z,8.75
2023-05-17T19:36:15.028Z,8.83
2023-05-17T19:38:41.370Z,8.62
2023-05-17T19:41:07.734Z,8.48
2023-05-17T19:43:34.087Z,8.48
2023-05-17T19:46:00.577Z,8.32
2023-05-17T19:48:26.998Z,8.35
2023-05-17T19:50:54.405Z,8.13
2023-05-17T19:53:22.565Z,8.27
2023-05-17T19:55:48.900Z,8.07
2023-05-17T19:58:15.255Z,8.25
2023-05-17T20:00:41.584Z,8.05
2023-05-17T20:03:08.029Z,8.12
2023-05-17T20:05:34.585Z,8.10
2023-05-17T20:08:00.950Z,8.02
2023-05-17T20:10:27.454Z,7.95
2023-05-17T20:12:54.525Z,8.01
2023-05-17T20:15:20.906Z,7.63
2023-05-17T20:17:47.258Z,7.81
2023-05-17T20:20:13.644Z,7.91
2023-05-17T20:22:40.031Z,7.79
2023-05-17T20:25:06.738Z,7.59
2023-05-17T20:27:33.085Z,7.61
2023-05-17T20:29:59.547Z,7.62
2023-05-17T20:32:25.980Z,7.63
2023-05-17T20:34:52.519Z,7.53
2023-05-17T20:37:18.893Z,7.47
2023-05-17T20:39:45.330Z,7.49
2023-05-17T20:42:11.715Z,7.42
2023-05-17T20:44:38.056Z,7.39
2023-05-17T20:47:04.494Z,7.21
2023-05-17T20:49:30.848Z,7.06
2023-05-17T20:52:01.916Z,7.21
2023-05-17T20:54:28.291Z,7.16
2023-05-17T20:56:54.616Z,7.02
2023-05-17T20:59:23.256Z,7.11
2023-05-17T21:01:49.927Z,6.89
2023-05-17T21:04:16.351Z,6.85
2023-05-17T21:06:42.877Z,6.96
2023-05-17T21:09:09.263Z,6.85
2023-05-17T21:11:35.691Z,6.75
2023-05-17T21:14:02.095Z,6.72
2023-05-17T21:16:28.841Z,6.85
2023-05-17T21:18:55.307Z,6.72
2023-05-17T21:21:21.676Z,6.76
2023-05-17T21:23:48.253Z,6.66
2023-05-17T21:26:14.614Z,6.71
2023-05-17T21:28:41.056Z,6.68
2023-05-17T21:31:07.543Z,6.59
2023-05-17T21:33:33.892Z,6.57
2023-05-17T21:36:00.258Z,6.51
2023-05-17T21:38:26.622Z,6.47
2023-05-17T21:40:52.988Z,6.51
2023-05-17T21:43:19.350Z,6.53
2023-05-17T21:45:45.717Z,6.45
2023-05-17T21:48:12.119Z,6.27
2023-05-17T21:50:38.507Z,6.22
2023-05-17T21:53:04.875Z,6.22
2023-05-17T21:55:40.917Z,6.05
2023-05-17T21:58:17.586Z,6.01
2023-05-17T22:00:43.949Z,5.98
2023-05-17T22:03:10.432Z,5.72
2023-05-17T22:05:37.989Z,5.66
2023-05-17T22:08:04.732Z,5.84
2023-05-17T22:10:31.364Z,5.84
2023-05-17T22:12:58.295Z,5.79
2023-05-17T22:15:24.652Z,5.86
2023-05-17T22:17:52.970Z,5.77
2023-05-17T22:20:20.179Z,5.77
2023-05-17T22:22:46.597Z,5.60
2023-05-17T22:25:13.570Z,5.51
2023-05-17T22:27:41.083Z,5.36
2023-05-17T22:30:07.881Z,5.09
2023-05-17T22:32:34.293Z,5.01
2023-05-17T22:35:00.701Z,5.13
2023-05-17T22:37:27.168Z,5.25
2023-05-17T22:39:53.516Z,5.16
2023-05-17T22:42:19.868Z,4.86
2023-05-17T22:44:46.240Z,4.72
2023-05-17T22:47:12.655Z,4.91
2023-05-17T22:49:39.132Z,4.73
2023-05-17T22:52:05.885Z,4.62
2023-05-17T22:54:36.218Z,4.61
2023-05-17T22:57:03.850Z,4.75
2023-05-17T22:59:30.809Z,4.85
2023-05-17T23:01:57.478Z,5.06
2023-05-17T23:04:24.142Z,5.14
2023-05-17T23:06:50.621Z,4.98
2023-05-17T23:09:16.970Z,4.81
2023-05-17T23:11:43.299Z,4.70
2023-05-17T23:14:09.682Z,4.68
2023-05-17T23:16:36.119Z,4.64
2023-05-17T23:19:02.685Z,4.52
2023-05-17T23:21:29.253Z,4.44
2023-05-17T23:23:55.640Z,4.39
2023-05-17T23:26:22.011Z,4.41
2023-05-17T23:28:48.380Z,4.47
2023-05-17T23:31:14.751Z,4.37
2023-05-17T23:33:41.123Z,4.34
2023-05-17T23:36:07.627Z,4.36
2023-05-17T23:38:33.963Z,4.29
2023-05-17T23:41:00.359Z,4.33
2023-05-17T23:43:26.711Z,4.27
2023-05-17T23:45:53.105Z,4.26
2023-05-17T23:48:19.470Z,4.24
2023-05-17T23:50:46.062Z,4.24
2023-05-17T23:53:12.418Z,4.15
2023-05-17T23:55:38.883Z,4.05
2023-05-17T23:58:05.298Z,3.97
